sensor_id;sensor_type;location;lat;lon;timestamp;pressure;altitude;pressure_sealevel;temperature;humidity
63715;BME280;49858;48.956;9.076;2023-05-20T00:02:19;98884.41;;;14.33;100.00
63715;BME280;49858;48.956;9.076;2023-05-20T00:04:47;98881.59;;;14.60;100.00
63715;BME280;49858;48.956;9.076;2023-05-20T00:07:15;98884.41;;;14.64;100.00
63715;BME280;49858;48.956;9.076;2023-05-20T00:09:42;98880.94;;;14.74;100.00
63715;BME280;49858;48.956;9.076;2023-05-20T00:12:10;98885.53;;;14.96;100.00
63715;BME280;49858;48.956;9.076;2023-05-20T00:14:38;98879.38;;;14.76;100.00
63715;BME280;49858;48.956;9.076;2023-05-20T00:17:06;98886.97;;;14.83;100.00
63715;BME280;49858;48.956;9.076;2023-05-20T00:19:35;98883.81;;;15.29;100.00
63715;BME280;49858;48.956;9.076;2023-05-20T00:22:03;98880.75;;;15.41;100.00
63715;BME280;49858;48.956;9.076;2023-05-20T00:24:31;98873.97;;;14.91;100.00
63715;BME280;49858;48.956;9.076;2023-05-20T00:26:59;98872.84;;;14.95;100.00
63715;BME280;49858;48.956;9.076;2023-05-20T00:29:28;98863.50;;;15.14;100.00
63715;BME280;49858;48.956;9.076;2023-05-20T00:31:56;98862.00;;;15.24;100.00
63715;BME280;49858;48.956;9.076;2023-05-20T00:34:24;98864.19;;;15.48;100.00
63715;BME280;49858;48.956;9.076;2023-05-20T00:36:53;98875.84;;;15.24;100.00
63715;BME280;49858;48.956;9.076;2023-05-20T00:39:21;98870.84;;;14.96;100.00
63715;BME280;49858;48.956;9.076;2023-05-20T00:41:49;98874.78;;;14.91;100.00
63715;BME280;49858;48.956;9.076;2023-05-20T00:44:16;98864.34;;;14.74;100.00
63715;BME280;49858;48.956;9.076;2023-05-20T00:46:46;98863.41;;;15.03;100.00
63715;BME280;49858;48.956;9.076;2023-05-20T00:49:16;98862.44;;;15.26;100.00
63715;BME280;49858;48.956;9.076;2023-05-20T00:51:44;98868.59;;;14.68;100.00
63715;BME280;49858;48.956;9.076;2023-05-20T00:54:14;98865.03;;;14.64;100.00
63715;BME280;49858;48.956;9.076;2023-05-20T00:56:43;98860.59;;;14.96;100.00
63715;BME280;49858;48.956;9.076;2023-05-20T00:59:11;98851.78;;;15.31;100.00
63715;BME280;49858;48.956;9.076;2023-05-20T01:01:39;98862.88;;;15.31;100.00
63715;BME280;49858;48.956;9.076;2023-05-20T01:04:07;98863.94;;;15.16;100.00
63715;BME280;49858;48.956;9.076;2023-05-20T01:06:35;98863.72;;;15.39;100.00
63715;BME280;49858;48.956;9.076;2023-05-20T01:09:04;98856.09;;;14.81;100.00
63715;BME280;49858;48.956;9.076;2023-05-20T01:11:37;98858.63;;;15.00;100.00
63715;BME280;49858;48.956;9.076;2023-05-20T01:14:11;98857.75;;;14.89;100.00
63715;BME280;49858;48.956;9.076;2023-05-20T01:16:40;98863.53;;;15.18;100.00
63715;BME280;49858;48.956;9.076;2023-05-20T01:19:19;98862.69;;;15.10;100.00
63715;BME280;49858;48.956;9.076;2023-05-20T01:21:49;98859.59;;;15.15;100.00
63715;BME280;49858;48.956;9.076;2023-05-20T01:24:21;98852.94;;;15.27;100.00
63715;BME280;49858;48.956;9.076;2023-05-20T01:26:49;98853.81;;;15.38;100.00
63715;BME280;49858;48.956;9.076;2023-05-20T01:29:17;98857.13;;;15.06;100.00
63715;BME280;49858;48.956;9.076;2023-05-20T01:31:46;98853.81;;;15.38;100.00
63715;BME280;49858;48.956;9.076;2023-05-20T01:34:14;98857.72;;;15.30;100.00
63715;BME280;49858;48.956;9.076;2023-05-20T01:36:44;98853.50;;;15.50;100.00
63715;BME280;49858;48.956;9.076;2023-05-20T01:39:13;98858.19;;;15.43;100.00
63715;BME280;49858;48.956;9.076;2023-05-20T01:41:43;98856.50;;;15.27;100.00
63715;BME280;49858;48.956;9.076;2023-05-20T01:44:11;98851.28;;;14.74;100.00
63715;BME280;49858;48.956;9.076;2023-05-20T01:46:40;98849.47;;;14.93;100.00
63715;BME280;49858;48.956;9.076;2023-05-20T01:49:08;98860.25;;;15.01;100.00
63715;BME280;49858;48.956;9.076;2023-05-20T01:51:36;98845.31;;;14.72;100.00
63715;BME280;49858;48.956;9.076;2023-05-20T01:54:03;98839.03;;;14.75;100.00
63715;BME280;49858;48.956;9.076;2023-05-20T01:56:31;98843.06;;;14.85;100.00
63715;BME280;49858;48.956;9.076;2023-05-20T01:59:00;98852.88;;;15.20;100.00
63715;BME280;49858;48.956;9.076;2023-05-20T02:01:28;98847.41;;;14.82;100.00
63715;BME280;49858;48.956;9.076;2023-05-20T02:03:56;98845.78;;;14.81;100.00
63715;BME280;49858;48.956;9.076;2023-05-20T02:06:24;98851.75;;;15.24;100.00
63715;BME280;49858;48.956;9.076;2023-05-20T02:08:53;98845.63;;;15.04;100.00
63715;BME280;49858;48.956;9.076;2023-05-20T02:11:21;98841.28;;;15.07;100.00
63715;BME280;49858;48.956;9.076;2023-05-20T02:13:49;98848.44;;;15.08;100.00
63715;BME280;49858;48.956;9.076;2023-05-20T02:16:18;98841.97;;;14.93;100.00
63715;BME280;49858;48.956;9.076;2023-05-20T02:18:46;98841.59;;;14.57;100.00
63715;BME280;49858;48.956;9.076;2023-05-20T02:21:16;98837.03;;;14.76;100.00
63715;BME280;49858;48.956;9.076;2023-05-20T02:23:43;98837.25;;;14.97;100.00
63715;BME280;49858;48.956;9.076;2023-05-20T02:26:12;98832.16;;;15.03;100.00
63715;BME280;49858;48.956;9.076;2023-05-20T02:28:39;98842.16;;;15.18;100.00
63715;BME280;49858;48.956;9.076;2023-05-20T02:31:12;98833.66;;;14.93;100.00
63715;BME280;49858;48.956;9.076;2023-05-20T02:33:41;98834.84;;;14.96;100.00
63715;BME280;49858;48.956;9.076;2023-05-20T02:36:09;98829.66;;;14.91;100.00
63715;BME280;49858;48.956;9.076;2023-05-20T02:38:37;98828.44;;;14.85;100.00
63715;BME280;49858;48.956;9.076;2023-05-20T02:41:05;98820.03;;;15.22;100.00
63715;BME280;49858;48.956;9.076;2023-05-20T02:43:34;98825.69;;;15.36;100.00
63715;BME280;49858;48.956;9.076;2023-05-20T02:46:02;98831.13;;;15.22;100.00
63715;BME280;49858;48.956;9.076;2023-05-20T02:48:31;98829.19;;;15.26;100.00
63715;BME280;49858;48.956;9.076;2023-05-20T02:51:00;98824.75;;;15.18;100.00
63715;BME280;49858;48.956;9.076;2023-05-20T02:53:28;98822.97;;;14.95;100.00
63715;BME280;49858;48.956;9.076;2023-05-20T02:55:56;98825.19;;;14.75;100.00
63715;BME280;49858;48.956;9.076;2023-05-20T02:58:25;98810.38;;;15.05;100.00
63715;BME280;49858;48.956;9.076;2023-05-20T03:00:53;98821.00;;;14.96;100.00
63715;BME280;49858;48.956;9.076;2023-05-20T03:03:24;98816.88;;;15.20;100.00
63715;BME280;49858;48.956;9.076;2023-05-20T03:05:53;98822.59;;;15.45;100.00
63715;BME280;49858;48.956;9.076;2023-05-20T03:08:24;98819.06;;;14.96;100.00
63715;BME280;49858;48.956;9.076;2023-05-20T03:10:51;98819.41;;;15.46;100.00
63715;BME280;49858;48.956;9.076;2023-05-20T03:13:20;98812.97;;;14.80;100.00
63715;BME280;49858;48.956;9.076;2023-05-20T03:15:47;98811.78;;;14.81;100.00
63715;BME280;49858;48.956;9.076;2023-05-20T03:18:15;98826.72;;;14.69;100.00
63715;BME280;49858;48.956;9.076;2023-05-20T03:20:45;98825.28;;;14.86;100.00
63715;BME280;49858;48.956;9.076;2023-05-20T03:23:13;98819.09;;;15.03;100.00
63715;BME280;49858;48.956;9.076;2023-05-20T03:25:42;98825.69;;;14.88;100.00
63715;BME280;49858;48.956;9.076;2023-05-20T03:28:10;98825.69;;;14.88;100.00
63715;BME280;49858;48.956;9.076;2023-05-20T03:30:38;98822.94;;;15.40;100.00
63715;BME280;49858;48.956;9.076;2023-05-20T03:33:06;98819.31;;;15.32;100.00
63715;BME280;49858;48.956;9.076;2023-05-20T03:35:34;98821.38;;;15.42;100.00
63715;BME280;49858;48.956;9.076;2023-05-20T03:38:03;98823.25;;;15.27;100.00
63715;BME280;49858;48.956;9.076;2023-05-20T03:40:33;98823.09;;;15.09;100.00
63715;BME280;49858;48.956;9.076;2023-05-20T03:43:03;98828.84;;;15.38;100.00
63715;BME280;49858;48.956;9.076;2023-05-20T03:45:31;98829.31;;;15.47;100.00
63715;BME280;49858;48.956;9.076;2023-05-20T03:48:05;98830.44;;;14.91;100.00
63715;BME280;49858;48.956;9.076;2023-05-20T03:50:34;98834.25;;;15.17;100.00
63715;BME280;49858;48.956;9.076;2023-05-20T03:53:02;98836.25;;;15.20;100.00
63715;BME280;49858;48.956;9.076;2023-05-20T03:55:36;98837.91;;;14.83;100.00
63715;BME280;49858;48.956;9.076;2023-05-20T03:58:06;98835.56;;;14.86;100.00
63715;BME280;49858;48.956;9.076;2023-05-20T04:00:34;98839.22;;;14.97;100.00
63715;BME280;49858;48.956;9.076;2023-05-20T04:03:02;98842.53;;;14.69;100.00
63715;BME280;49858;48.956;9.076;2023-05-20T04:05:31;98838.66;;;14.80;100.00
63715;BME280;49858;48.956;9.076;2023-05-20T04:08:00;98838.56;;;15.14;100.00
63715;BME280;49858;48.956;9.076;2023-05-20T04:10:30;98835.13;;;15.28;100.00
63715;BME280;49858;48.956;9.076;2023-05-20T04:12:58;98840.50;;;15.06;100.00
63715;BME280;49858;48.956;9.076;2023-05-20T04:15:28;98831.72;;;15.49;100.00
63715;BME280;49858;48.956;9.076;2023-05-20T04:17:57;98833.63;;;15.41;100.00
63715;BME280;49858;48.956;9.076;2023-05-20T04:20:26;98836.00;;;15.39;100.00
63715;BME280;49858;48.956;9.076;2023-05-20T04:22:56;98825.75;;;15.43;100.00
63715;BME280;49858;48.956;9.076;2023-05-20T04:25:24;98826.31;;;15.70;100.00
63715;BME280;49858;48.956;9.076;2023-05-20T04:27:53;98820.84;;;15.77;100.00
63715;BME280;49858;48.956;9.076;2023-05-20T04:30:23;98825.53;;;15.70;100.00
63715;BME280;49858;48.956;9.076;2023-05-20T04:32:53;98825.47;;;15.63;100.00
63715;BME280;49858;48.956;9.076;2023-05-20T04:35:21;98823.38;;;15.45;100.00
63715;BME280;49858;48.956;9.076;2023-05-20T04:37:53;98823.84;;;15.58;100.00
63715;BME280;49858;48.956;9.076;2023-05-20T04:40:22;98814.53;;;15.25;100.00
63715;BME280;49858;48.956;9.076;2023-05-20T04:42:50;98823.06;;;15.57;100.00
63715;BME280;49858;48.956;9.076;2023-05-20T04:45:18;98811.88;;;15.47;100.00
63715;BME280;49858;48.956;9.076;2023-05-20T04:47:49;98809.38;;;15.27;100.00
63715;BME280;49858;48.956;9.076;2023-05-20T04:50:20;98815.75;;;15.31;100.00
63715;BME280;49858;48.956;9.076;2023-05-20T04:52:48;98810.63;;;15.37;100.00
63715;BME280;49858;48.956;9.076;2023-05-20T04:55:17;98808.13;;;14.70;100.00
63715;BME280;49858;48.956;9.076;2023-05-20T04:57:45;98801.66;;;14.99;100.00
63715;BME280;49858;48.956;9.076;2023-05-20T05:00:14;98810.31;;;14.94;100.00
63715;BME280;49858;48.956;9.076;2023-05-20T05:02:41;98806.59;;;15.24;100.00
63715;BME280;49858;48.956;9.076;2023-05-20T05:05:09;98808.88;;;15.11;100.00
63715;BME280;49858;48.956;9.076;2023-05-20T05:07:39;98809.19;;;15.02;100.00
63715;BME280;49858;48.956;9.076;2023-05-20T05:10:08;98804.16;;;15.19;100.00
63715;BME280;49858;48.956;9.076;2023-05-20T05:12:36;98808.59;;;15.27;100.00
63715;BME280;49858;48.956;9.076;2023-05-20T05:15:04;98807.09;;;15.40;100.00
63715;BME280;49858;48.956;9.076;2023-05-20T05:17:32;98804.59;;;15.21;100.00
63715;BME280;49858;48.956;9.076;2023-05-20T05:20:00;98799.63;;;15.44;100.00
63715;BME280;49858;48.956;9.076;2023-05-20T05:22:30;98798.31;;;15.27;100.00
63715;BME280;49858;48.956;9.076;2023-05-20T05:25:02;98799.53;;;15.30;100.00
63715;BME280;49858;48.956;9.076;2023-05-20T05:27:30;98806.22;;;15.25;100.00
63715;BME280;49858;48.956;9.076;2023-05-20T05:29:59;98808.66;;;15.38;100.00
63715;BME280;49858;48.956;9.076;2023-05-20T05:32:27;98803.59;;;15.50;100.00
63715;BME280;49858;48.956;9.076;2023-05-20T05:34:56;98801.38;;;15.70;100.00
63715;BME280;49858;48.956;9.076;2023-05-20T05:37:24;98786.03;;;15.25;100.00
63715;BME280;49858;48.956;9.076;2023-05-20T05:39:52;98788.41;;;15.26;100.00
63715;BME280;49858;48.956;9.076;2023-05-20T05:42:21;98783.09;;;15.62;100.00
63715;BME280;49858;48.956;9.076;2023-05-20T05:44:49;98785.75;;;15.44;100.00
63715;BME280;49858;48.956;9.076;2023-05-20T05:47:18;98794.06;;;15.44;100.00
63715;BME280;49858;48.956;9.076;2023-05-20T05:49:46;98785.66;;;15.33;100.00
63715;BME280;49858;48.956;9.076;2023-05-20T05:52:14;98782.31;;;15.65;100.00
63715;BME280;49858;48.956;9.076;2023-05-20T05:54:42;98785.22;;;15.94;100.00
63715;BME280;49858;48.956;9.076;2023-05-20T05:57:10;98785.53;;;15.67;100.00
63715;BME280;49858;48.956;9.076;2023-05-20T05:59:40;98785.69;;;16.06;100.00
63715;BME280;49858;48.956;9.076;2023-05-20T06:02:09;98780.22;;;16.35;100.00
63715;BME280;49858;48.956;9.076;2023-05-20T06:04:37;98777.84;;;16.37;100.00
63715;BME280;49858;48.956;9.076;2023-05-20T06:07:05;98777.69;;;15.94;100.00
63715;BME280;49858;48.956;9.076;2023-05-20T06:09:34;98773.41;;;16.07;100.00
63715;BME280;49858;48.956;9.076;2023-05-20T06:12:02;98768.75;;;16.54;100.00
63715;BME280;49858;48.956;9.076;2023-05-20T06:14:30;98773.84;;;16.31;100.00
63715;BME280;49858;48.956;9.076;2023-05-20T06:16:59;98771.09;;;16.31;100.00
63715;BME280;49858;48.956;9.076;2023-05-20T06:19:28;98779.50;;;16.74;100.00
63715;BME280;49858;48.956;9.076;2023-05-20T06:21:56;98765.25;;;16.86;100.00
63715;BME280;49858;48.956;9.076;2023-05-20T06:24:24;98772.72;;;16.60;100.00
63715;BME280;49858;48.956;9.076;2023-05-20T06:26:52;98782.72;;;16.76;100.00
63715;BME280;49858;48.956;9.076;2023-05-20T06:29:20;98776.34;;;17.29;100.00
63715;BME280;49858;48.956;9.076;2023-05-20T06:31:49;98777.13;;;17.36;100.00
63715;BME280;49858;48.956;9.076;2023-05-20T06:34:18;98766.38;;;17.46;100.00
63715;BME280;49858;48.956;9.076;2023-05-20T06:36:46;98756.47;;;17.37;100.00
63715;BME280;49858;48.956;9.076;2023-05-20T06:39:14;98763.53;;;17.63;100.00
63715;BME280;49858;48.956;9.076;2023-05-20T06:41:43;98760.84;;;17.17;100.00
63715;BME280;49858;48.956;9.076;2023-05-20T06:44:18;98752.06;;;17.44;100.00
63715;BME280;49858;48.956;9.076;2023-05-20T06:47:13;98749.22;;;17.69;100.00
63715;BME280;49858;48.956;9.076;2023-05-20T06:49:43;98751.78;;;18.26;100.00
63715;BME280;49858;48.956;9.076;2023-05-20T06:52:13;98752.03;;;17.54;100.00
63715;BME280;49858;48.956;9.076;2023-05-20T06:54:41;98759.25;;;17.41;100.00
63715;BME280;49858;48.956;9.076;2023-05-20T06:57:10;98753.16;;;17.85;100.00
63715;BME280;49858;48.956;9.076;2023-05-20T06:59:38;98749.19;;;17.72;100.00
63715;BME280;49858;48.956;9.076;2023-05-20T07:02:07;98750.72;;;17.98;100.00
63715;BME280;49858;48.956;9.076;2023-05-20T07:04:35;98745.78;;;18.31;100.00
63715;BME280;49858;48.956;9.076;2023-05-20T07:07:04;98741.09;;;18.80;100.00
63715;BME280;49858;48.956;9.076;2023-05-20T07:09:32;98731.50;;;18.81;100.00
63715;BME280;49858;48.956;9.076;2023-05-20T07:12:00;98734.66;;;18.27;100.00
63715;BME280;49858;48.956;9.076;2023-05-20T07:14:29;98731.88;;;18.24;100.00
63715;BME280;49858;48.956;9.076;2023-05-20T07:16:57;98731.06;;;18.86;100.00
63715;BME280;49858;48.956;9.076;2023-05-20T07:19:25;98741.78;;;18.91;100.00
63715;BME280;49858;48.956;9.076;2023-05-20T07:21:53;98730.94;;;19.00;100.00
63715;BME280;49858;48.956;9.076;2023-05-20T07:24:34;98731.19;;;18.72;100.00
63715;BME280;49858;48.956;9.076;2023-05-20T07:27:03;98726.22;;;18.42;100.00
63715;BME280;49858;48.956;9.076;2023-05-20T07:29:31;98717.97;;;19.24;100.00
63715;BME280;49858;48.956;9.076;2023-05-20T07:31:59;98725.78;;;19.02;100.00
63715;BME280;49858;48.956;9.076;2023-05-20T07:34:28;98714.41;;;19.61;100.00
63715;BME280;49858;48.956;9.076;2023-05-20T07:36:56;98722.34;;;18.84;100.00
63715;BME280;49858;48.956;9.076;2023-05-20T07:39:25;98718.53;;;19.08;100.00
63715;BME280;49858;48.956;9.076;2023-05-20T07:41:54;98719.09;;;18.93;100.00
63715;BME280;49858;48.956;9.076;2023-05-20T07:44:22;98703.25;;;19.61;100.00
63715;BME280;49858;48.956;9.076;2023-05-20T07:46:52;98710.09;;;19.53;100.00
63715;BME280;49858;48.956;9.076;2023-05-20T07:49:21;98699.25;;;19.93;100.00
63715;BME280;49858;48.956;9.076;2023-05-20T07:51:49;98703.22;;;19.96;100.00
63715;BME280;49858;48.956;9.076;2023-05-20T07:54:18;98710.75;;;20.56;100.00
63715;BME280;49858;48.956;9.076;2023-05-20T07:56:48;98703.94;;;20.30;100.00
63715;BME280;49858;48.956;9.076;2023-05-20T07:59:18;98703.28;;;19.92;100.00
63715;BME280;49858;48.956;9.076;2023-05-20T08:01:48;98691.84;;;21.34;100.00
63715;BME280;49858;48.956;9.076;2023-05-20T08:04:18;98682.97;;;21.16;100.00
63715;BME280;49858;48.956;9.076;2023-05-20T08:06:47;98686.34;;;21.51;100.00
63715;BME280;49858;48.956;9.076;2023-05-20T08:09:25;98673.63;;;21.46;100.00
63715;BME280;49858;48.956;9.076;2023-05-20T08:11:54;98679.03;;;22.13;100.00
63715;BME280;49858;48.956;9.076;2023-05-20T08:14:24;98681.72;;;21.40;100.00
63715;BME280;49858;48.956;9.076;2023-05-20T08:16:52;98671.38;;;21.17;100.00
63715;BME280;49858;48.956;9.076;2023-05-20T08:19:21;98677.41;;;21.76;100.00
63715;BME280;49858;48.956;9.076;2023-05-20T08:21:49;98675.84;;;22.11;100.00
63715;BME280;49858;48.956;9.076;2023-05-20T08:24:17;98674.50;;;21.99;100.00
63715;BME280;49858;48.956;9.076;2023-05-20T08:26:45;98682.50;;;22.37;97.36
63715;BME280;49858;48.956;9.076;2023-05-20T08:29:14;98676.50;;;21.42;100.00
63715;BME280;49858;48.956;9.076;2023-05-20T08:31:44;98674.06;;;22.86;92.99
63715;BME280;49858;48.956;9.076;2023-05-20T08:34:12;98664.00;;;23.05;93.59
63715;BME280;49858;48.956;9.076;2023-05-20T08:36:40;98673.97;;;21.88;98.91
63715;BME280;49858;48.956;9.076;2023-05-20T08:39:10;98676.84;;;22.20;100.00
63715;BME280;49858;48.956;9.076;2023-05-20T08:41:38;98672.69;;;22.78;95.13
63715;BME280;49858;48.956;9.076;2023-05-20T08:44:07;98672.69;;;21.73;100.00
63715;BME280;49858;48.956;9.076;2023-05-20T08:46:37;98669.91;;;23.52;91.38
63715;BME280;49858;48.956;9.076;2023-05-20T08:49:08;98673.56;;;24.58;85.10
63715;BME280;49858;48.956;9.076;2023-05-20T08:51:36;98682.53;;;23.31;94.88
63715;BME280;49858;48.956;9.076;2023-05-20T08:54:05;98676.34;;;22.58;95.63
63715;BME280;49858;48.956;9.076;2023-05-20T08:56:35;98687.44;;;23.27;92.43
63715;BME280;49858;48.956;9.076;2023-05-20T08:59:05;98677.38;;;23.30;92.14
63715;BME280;49858;48.956;9.076;2023-05-20T09:01:37;98688.03;;;23.06;95.52
63715;BME280;49858;48.956;9.076;2023-05-20T09:04:08;98690.84;;;22.73;94.74
63715;BME280;49858;48.956;9.076;2023-05-20T09:06:43;98687.75;;;23.16;92.49
63715;BME280;49858;48.956;9.076;2023-05-20T09:09:11;98682.34;;;23.38;92.43
63715;BME280;49858;48.956;9.076;2023-05-20T09:11:39;98683.50;;;23.54;89.77
63715;BME280;49858;48.956;9.076;2023-05-20T09:14:08;98677.69;;;23.61;90.61
63715;BME280;49858;48.956;9.076;2023-05-20T09:16:38;98677.06;;;23.11;92.25
63715;BME280;49858;48.956;9.076;2023-05-20T09:19:06;98678.31;;;22.94;94.97
63715;BME280;49858;48.956;9.076;2023-05-20T09:21:36;98673.38;;;23.85;88.14
63715;BME280;49858;48.956;9.076;2023-05-20T09:24:05;98664.66;;;24.34;86.05
63715;BME280;49858;48.956;9.076;2023-05-20T09:26:33;98662.56;;;24.38;85.39
63715;BME280;49858;48.956;9.076;2023-05-20T09:29:01;98662.16;;;23.98;87.37
63715;BME280;49858;48.956;9.076;2023-05-20T09:31:30;98667.25;;;25.14;80.06
63715;BME280;49858;48.956;9.076;2023-05-20T09:33:59;98672.56;;;24.52;81.71
63715;BME280;49858;48.956;9.076;2023-05-20T09:36:28;98661.16;;;25.51;76.05
63715;BME280;49858;48.956;9.076;2023-05-20T09:39:00;98661.00;;;25.54;76.87
63715;BME280;49858;48.956;9.076;2023-05-20T09:41:33;98659.63;;;25.37;78.71
63715;BME280;49858;48.956;9.076;2023-05-20T09:44:04;98654.72;;;25.94;76.84
63715;BME280;49858;48.956;9.076;2023-05-20T09:46:33;98654.66;;;25.85;76.74
63715;BME280;49858;48.956;9.076;2023-05-20T09:49:02;98659.84;;;25.08;88.06
63715;BME280;49858;48.956;9.076;2023-05-20T09:51:32;98652.25;;;24.70;90.64
63715;BME280;49858;48.956;9.076;2023-05-20T09:54:02;98656.13;;;24.98;86.39
63715;BME280;49858;48.956;9.076;2023-05-20T09:56:34;98655.94;;;23.65;95.24
63715;BME280;49858;48.956;9.076;2023-05-20T09:59:04;98639.25;;;24.12;89.95
63715;BME280;49858;48.956;9.076;2023-05-20T10:01:32;98651.19;;;23.33;91.10
63715;BME280;49858;48.956;9.076;2023-05-20T10:04:00;98639.47;;;24.05;90.40
63715;BME280;49858;48.956;9.076;2023-05-20T10:06:59;98639.47;;;24.31;89.60
63715;BME280;49858;48.956;9.076;2023-05-20T10:09:44;98634.84;;;24.62;99.52
63715;BME280;49858;48.956;9.076;2023-05-20T10:12:21;98630.28;;;24.05;89.42
63715;BME280;49858;48.956;9.076;2023-05-20T10:14:58;98634.72;;;23.89;91.14
63715;BME280;49858;48.956;9.076;2023-05-20T10:17:40;98639.25;;;24.12;88.96
63715;BME280;49858;48.956;9.076;2023-05-20T10:20:11;98636.22;;;23.52;92.23
63715;BME280;49858;48.956;9.076;2023-05-20T10:22:39;98622.72;;;24.02;92.66
63715;BME280;49858;48.956;9.076;2023-05-20T10:25:11;98624.53;;;25.51;84.04
63715;BME280;49858;48.956;9.076;2023-05-20T10:27:49;98616.63;;;25.89;81.69
63715;BME280;49858;48.956;9.076;2023-05-20T10:30:19;98618.09;;;27.20;74.44
63715;BME280;49858;48.956;9.076;2023-05-20T10:32:48;98621.16;;;26.76;75.25
63715;BME280;49858;48.956;9.076;2023-05-20T10:35:20;98618.22;;;26.98;75.72
63715;BME280;49858;48.956;9.076;2023-05-20T10:37:48;98607.28;;;27.89;67.11
63715;BME280;49858;48.956;9.076;2023-05-20T10:40:19;98605.91;;;27.66;69.68
63715;BME280;49858;48.956;9.076;2023-05-20T10:42:48;98602.22;;;27.32;69.27
63715;BME280;49858;48.956;9.076;2023-05-20T10:45:25;98602.59;;;27.95;63.83
63715;BME280;49858;48.956;9.076;2023-05-20T10:47:55;98593.16;;;28.22;60.97
63715;BME280;49858;48.956;9.076;2023-05-20T10:50:27;98600.09;;;27.88;59.85
63715;BME280;49858;48.956;9.076;2023-05-20T10:53:02;98598.25;;;26.65;68.40
63715;BME280;49858;48.956;9.076;2023-05-20T10:55:38;98596.69;;;26.55;70.38
63715;BME280;49858;48.956;9.076;2023-05-20T10:58:07;98588.97;;;25.44;77.14
63715;BME280;49858;48.956;9.076;2023-05-20T11:00:36;98592.59;;;26.07;76.78
63715;BME280;49858;48.956;9.076;2023-05-20T11:03:05;98592.78;;;26.12;75.77
63715;BME280;49858;48.956;9.076;2023-05-20T11:05:38;98594.22;;;26.94;69.77
63715;BME280;49858;48.956;9.076;2023-05-20T11:08:07;98585.81;;;26.35;72.60
63715;BME280;49858;48.956;9.076;2023-05-20T11:10:51;98576.34;;;26.79;71.87
63715;BME280;49858;48.956;9.076;2023-05-20T11:13:19;98576.28;;;27.43;68.84
63715;BME280;49858;48.956;9.076;2023-05-20T11:15:47;98576.59;;;26.44;70.26
63715;BME280;49858;48.956;9.076;2023-05-20T11:18:16;98582.16;;;27.30;66.98
63715;BME280;49858;48.956;9.076;2023-05-20T11:20:45;98565.47;;;27.41;64.92
63715;BME280;49858;48.956;9.076;2023-05-20T11:23:14;98559.69;;;28.77;59.85
63715;BME280;49858;48.956;9.076;2023-05-20T11:25:42;98555.06;;;30.22;52.05
63715;BME280;49858;48.956;9.076;2023-05-20T11:28:12;98559.00;;;29.07;54.37
63715;BME280;49858;48.956;9.076;2023-05-20T11:30:41;98537.47;;;30.18;49.79
63715;BME280;49858;48.956;9.076;2023-05-20T11:33:11;98538.81;;;30.43;48.58
63715;BME280;49858;48.956;9.076;2023-05-20T11:35:44;98533.16;;;28.18;54.81
63715;BME280;49858;48.956;9.076;2023-05-20T11:38:12;98552.16;;;26.50;65.61
63715;BME280;49858;48.956;9.076;2023-05-20T11:40:44;98552.13;;;25.91;68.90
63715;BME280;49858;48.956;9.076;2023-05-20T11:43:18;98556.94;;;27.78;58.13
63715;BME280;49858;48.956;9.076;2023-05-20T11:45:54;98549.78;;;27.40;57.14
63715;BME280;49858;48.956;9.076;2023-05-20T11:48:24;98547.78;;;26.86;60.30
63715;BME280;49858;48.956;9.076;2023-05-20T11:50:54;98544.31;;;27.37;57.69
63715;BME280;49858;48.956;9.076;2023-05-20T11:53:22;98536.50;;;26.49;63.34
63715;BME280;49858;48.956;9.076;2023-05-20T11:55:52;98533.09;;;26.14;69.59
63715;BME280;49858;48.956;9.076;2023-05-20T11:58:23;98539.94;;;26.99;66.25
63715;BME280;49858;48.956;9.076;2023-05-20T12:00:52;98533.16;;;27.94;60.63
63715;BME280;49858;48.956;9.076;2023-05-20T12:03:34;98535.56;;;29.06;51.96
63715;BME280;49858;48.956;9.076;2023-05-20T12:06:03;98524.91;;;27.81;57.31
63715;BME280;49858;48.956;9.076;2023-05-20T12:08:31;98537.09;;;27.36;59.32
63715;BME280;49858;48.956;9.076;2023-05-20T12:10:58;98530.69;;;26.53;64.84
63715;BME280;49858;48.956;9.076;2023-05-20T12:13:27;98529.72;;;28.71;56.72
63715;BME280;49858;48.956;9.076;2023-05-20T12:15:55;98525.44;;;29.59;51.53
63715;BME280;49858;48.956;9.076;2023-05-20T12:18:23;98516.41;;;30.66;46.44
63715;BME280;49858;48.956;9.076;2023-05-20T12:20:51;98517.34;;;30.37;49.00
63715;BME280;49858;48.956;9.076;2023-05-20T12:23:19;98509.59;;;28.84;53.19
63715;BME280;49858;48.956;9.076;2023-05-20T12:25:47;98510.66;;;28.95;55.36
63715;BME280;49858;48.956;9.076;2023-05-20T12:28:15;98508.81;;;30.01;49.98
63715;BME280;49858;48.956;9.076;2023-05-20T12:30:45;98504.97;;;29.84;53.09
63715;BME280;49858;48.956;9.076;2023-05-20T12:33:13;98502.56;;;29.62;51.21
63715;BME280;49858;48.956;9.076;2023-05-20T12:35:42;98505.44;;;28.55;56.36
63715;BME280;49858;48.956;9.076;2023-05-20T12:38:10;98504.13;;;29.04;54.76
63715;BME280;49858;48.956;9.076;2023-05-20T12:40:38;98510.66;;;30.60;48.63
63715;BME280;49858;48.956;9.076;2023-05-20T12:43:06;98495.59;;;31.21;47.68
63715;BME280;49858;48.956;9.076;2023-05-20T12:45:33;98509.50;;;32.08;44.23
63715;BME280;49858;48.956;9.076;2023-05-20T12:48:03;98504.06;;;30.28;49.05
63715;BME280;49858;48.956;9.076;2023-05-20T12:50:32;98507.34;;;28.73;50.29
63715;BME280;49858;48.956;9.076;2023-05-20T12:53:00;98513.22;;;28.84;50.52
63715;BME280;49858;48.956;9.076;2023-05-20T12:55:28;98508.91;;;28.02;51.56
63715;BME280;49858;48.956;9.076;2023-05-20T12:57:56;98510.69;;;27.57;55.85
63715;BME280;49858;48.956;9.076;2023-05-20T13:00:24;98498.97;;;27.83;57.61
63715;BME280;49858;48.956;9.076;2023-05-20T13:02:52;98491.03;;;29.36;50.58
63715;BME280;49858;48.956;9.076;2023-05-20T13:05:21;98482.09;;;29.73;50.46